createdAt,value
2022-11-07T00:00:24.426Z,84.92
2022-11-07T00:02:51.666Z,84.84
2022-11-07T00:05:18.864Z,85.16
2022-11-07T00:07:46.332Z,85.43
2022-11-07T00:10:14.972Z,85.13
2022-11-07T00:12:42.032Z,85.33
2022-11-07T00:15:10.660Z,84.18
2022-11-07T00:17:39.463Z,84.35
2022-11-07T00:20:07.281Z,85.01
2022-11-07T00:22:34.457Z,85.23
2022-11-07T00:25:03.257Z,85.03
2022-11-07T00:27:30.610Z,84.85
2022-11-07T00:29:58.827Z,84.81
2022-11-07T00:32:26.906Z,85.06
2022-11-07T00:34:53.928Z,85.16
2022-11-07T00:37:21.127Z,84.92
2022-11-07T00:39:48.664Z,85.13
2022-11-07T00:42:16.101Z,84.86
2022-11-07T00:44:45.228Z,84.56
2022-11-07T00:47:12.984Z,85.00
2022-11-07T00:49:41.388Z,84.98
2022-11-07T00:52:08.456Z,84.99
2022-11-07T00:54:35.648Z,84.76
2022-11-07T00:57:03.524Z,84.96
2022-11-07T00:59:31.484Z,84.85
2022-11-07T01:01:59.001Z,85.24
2022-11-07T01:04:44.820Z,84.92
2022-11-07T01:07:12.112Z,85.01
2022-11-07T01:09:39.369Z,85.29
2022-11-07T01:12:07.637Z,85.25
2022-11-07T01:14:34.677Z,84.59
2022-11-07T01:17:02.029Z,85.01
2022-11-07T01:19:29.200Z,84.45
2022-11-07T01:21:56.437Z,84.43
2022-11-07T01:24:23.768Z,84.78
2022-11-07T01:26:51.943Z,84.68
2022-11-07T01:29:19.146Z,84.74
2022-11-07T01:31:46.981Z,85.14
2022-11-07T01:34:14.117Z,85.18
2022-11-07T01:36:42.436Z,85.70
2022-11-07T01:39:09.567Z,86.05
2022-11-07T01:41:38.581Z,85.75
2022-11-07T01:44:08.918Z,85.95
2022-11-07T01:46:37.298Z,86.13
2022-11-07T01:49:07.554Z,85.88
2022-11-07T01:51:37.524Z,85.40
2022-11-07T01:54:04.842Z,85.67
2022-11-07T01:56:33.102Z,85.13
2022-11-07T01:59:00.202Z,85.22
2022-11-07T02:01:28.410Z,85.27
2022-11-07T02:03:55.878Z,85.53
2022-11-07T02:06:36.522Z,85.91
2022-11-07T02:09:03.804Z,85.73
2022-11-07T02:11:31.708Z,85.66
2022-11-07T02:13:58.792Z,86.00
2022-11-07T02:16:25.865Z,85.57
2022-11-07T02:18:53.004Z,85.86
2022-11-07T02:21:29.449Z,85.45
2022-11-07T02:24:03.188Z,85.24
2022-11-07T02:26:30.301Z,85.13
2022-11-07T02:28:58.517Z,85.62
2022-11-07T02:31:25.821Z,85.61
2022-11-07T02:33:53.713Z,85.25
2022-11-07T02:36:21.657Z,85.09
2022-11-07T02:38:57.433Z,85.22
2022-11-07T02:41:25.713Z,85.62
2022-11-07T02:43:53.367Z,85.83
2022-11-07T02:46:21.151Z,85.69
2022-11-07T02:48:49.197Z,85.30
2022-11-07T02:51:16.259Z,85.20
2022-11-07T02:53:43.384Z,85.09
2022-11-07T02:56:10.583Z,85.56
2022-11-07T02:58:38.919Z,84.87
2022-11-07T03:01:09.265Z,84.68
2022-11-07T03:03:36.831Z,84.80
2022-11-07T03:06:03.966Z,84.71
2022-11-07T03:08:31.467Z,85.25
2022-11-07T03:10:58.778Z,85.99
2022-11-07T03:13:25.955Z,85.14
2022-11-07T03:15:53.273Z,85.87
2022-11-07T03:18:20.312Z,85.92
2022-11-07T03:20:47.548Z,85.98
2022-11-07T03:23:15.141Z,85.72
2022-11-07T03:25:42.685Z,85.53
2022-11-07T03:28:09.897Z,85.79
2022-11-07T03:30:37.439Z,85.73
2022-11-07T03:33:05.827Z,85.97
2022-11-07T03:35:32.921Z,86.15
2022-11-07T03:38:02.056Z,86.22
2022-11-07T03:40:29.171Z,86.01
2022-11-07T03:42:56.812Z,85.98
2022-11-07T03:45:24.099Z,85.64
2022-11-07T03:47:51.151Z,86.15
2022-11-07T03:50:19.115Z,86.49
2022-11-07T03:52:46.513Z,86.18
2022-11-07T03:55:16.148Z,86.34
2022-11-07T03:57:45.403Z,86.20
2022-11-07T04:00:13.676Z,85.76
2022-11-07T04:02:42.447Z,85.62
2022-11-07T04:05:09.737Z,85.73
2022-11-07T04:07:39.997Z,86.08
2022-11-07T04:10:07.407Z,85.84
2022-11-07T04:12:52.969Z,86.50
2022-11-07T04:15:39.075Z,86.46
2022-11-07T04:18:06.108Z,86.75
2022-11-07T04:20:33.168Z,86.59
2022-11-07T04:23:00.409Z,86.27
2022-11-07T04:25:46.390Z,86.60
2022-11-07T04:28:16.275Z,86.12
2022-11-07T04:30:43.680Z,86.60
2022-11-07T04:33:10.700Z,87.01
2022-11-07T04:35:38.560Z,86.84
2022-11-07T04:38:05.898Z,86.50
2022-11-07T04:40:33.646Z,86.66
2022-11-07T04:43:00.736Z,86.46
2022-11-07T04:45:27.929Z,87.26
2022-11-07T04:47:54.995Z,87.36
2022-11-07T04:50:22.045Z,87.01
2022-11-07T04:52:49.074Z,86.83
2022-11-07T04:55:17.566Z,87.05
2022-11-07T04:57:44.587Z,87.14
2022-11-07T05:00:12.065Z,86.51
2022-11-07T05:02:39.358Z,86.83
2022-11-07T05:05:07.063Z,86.38
2022-11-07T05:07:34.320Z,86.45
2022-11-07T05:10:01.381Z,86.33
2022-11-07T05:12:28.735Z,86.05
2022-11-07T05:14:55.713Z,85.77
2022-11-07T05:17:27.745Z,85.33
2022-11-07T05:19:55.121Z,84.80
2022-11-07T05:22:40.883Z,85.44
2022-11-07T05:25:09.703Z,85.44
2022-11-07T05:27:37.748Z,85.39
2022-11-07T05:30:05.479Z,85.29
2022-11-07T05:32:34.399Z,84.60
2022-11-07T05:35:01.968Z,85.39
2022-11-07T05:37:29.228Z,85.46
2022-11-07T05:39:57.547Z,85.60
2022-11-07T05:42:24.912Z,85.86
2022-11-07T05:44:51.965Z,85.73
2022-11-07T05:47:19.022Z,85.71
2022-11-07T05:49:46.393Z,84.91
2022-11-07T05:52:13.489Z,85.54
2022-11-07T05:54:40.564Z,85.38
2022-11-07T05:57:07.632Z,85.55
2022-11-07T05:59:34.683Z,84.87
2022-11-07T06:02:01.840Z,85.20
2022-11-07T06:04:30.222Z,85.04
2022-11-07T06:06:57.972Z,85.80
2022-11-07T06:09:25.099Z,85.24
2022-11-07T06:11:52.443Z,84.75
2022-11-07T06:14:19.482Z,85.51
2022-11-07T06:16:47.139Z,84.90
2022-11-07T06:19:14.535Z,85.41
2022-11-07T06:21:41.772Z,86.54
2022-11-07T06:24:14.859Z,86.33
2022-11-07T06:26:42.495Z,86.66
2022-11-07T06:29:09.948Z,86.37
2022-11-07T06:31:37.630Z,86.60
2022-11-07T06:34:05.094Z,86.68
2022-11-07T06:36:32.375Z,86.16
2022-11-07T06:38:59.438Z,85.37
2022-11-07T06:41:27.080Z,84.80
2022-11-07T06:43:54.247Z,84.80
2022-11-07T06:46:23.224Z,84.59
2022-11-07T06:48:50.296Z,84.93
2022-11-07T06:51:17.340Z,84.53
2022-11-07T06:53:44.440Z,84.03
2022-11-07T06:56:15.404Z,84.17
2022-11-07T06:58:42.546Z,84.35
2022-11-07T07:01:13.536Z,83.88
2022-11-07T07:03:44.267Z,83.44
2022-11-07T07:06:14.775Z,84.06
2022-11-07T07:08:42.097Z,83.46
2022-11-07T07:11:10.165Z,83.62
2022-11-07T07:13:37.596Z,83.58
2022-11-07T07:16:05.241Z,83.66
2022-11-07T07:18:32.334Z,84.01
2022-11-07T07:21:06.584Z,84.35
2022-11-07T07:23:38.568Z,84.02
2022-11-07T07:26:06.713Z,84.21
2022-11-07T07:28:33.795Z,82.95
2022-11-07T07:31:13.425Z,82.41
2022-11-07T07:33:40.940Z,82.19
2022-11-07T07:36:08.337Z,82.70
2022-11-07T07:38:35.576Z,82.34
2022-11-07T07:41:02.746Z,81.78
2022-11-07T07:43:29.950Z,81.90
2022-11-07T07:46:00.427Z,82.76
2022-11-07T07:48:27.747Z,82.07
2022-11-07T07:50:56.059Z,81.24
2022-11-07T07:53:23.200Z,80.80
2022-11-07T07:55:50.420Z,79.80
2022-11-07T07:58:17.713Z,80.67
2022-11-07T08:00:44.923Z,80.67
2022-11-07T08:03:12.241Z,80.78
2022-11-07T08:05:39.385Z,80.26
2022-11-07T08:08:06.903Z,79.85
2022-11-07T08:10:42.891Z,79.81
2022-11-07T08:13:10.364Z,79.60
2022-11-07T08:15:37.423Z,78.83
2022-11-07T08:18:04.542Z,79.38
2022-11-07T08:20:34.581Z,77.56
2022-11-07T08:23:02.320Z,77.84
2022-11-07T08:25:29.696Z,77.35
2022-11-07T08:27:57.595Z,77.25
2022-11-07T08:30:24.710Z,76.51
2022-11-07T08:32:52.385Z,77.82
2022-11-07T08:35:19.608Z,77.02
2022-11-07T08:37:46.699Z,75.86
2022-11-07T08:40:14.177Z,74.99
2022-11-07T08:42:42.447Z,75.33
2022-11-07T08:45:09.800Z,75.30
2022-11-07T08:47:38.003Z,73.90
2022-11-07T08:50:05.539Z,74.10
2022-11-07T08:52:33.939Z,73.37
2022-11-07T08:55:01.580Z,73.28
2022-11-07T08:57:28.783Z,73.20
2022-11-07T08:59:56.273Z,66.51
2022-11-07T09:05:10.534Z,58.33
2022-11-07T09:07:38.232Z,58.54
2022-11-07T09:10:05.406Z,58.71
2022-11-07T09:12:32.484Z,53.32
2022-11-07T09:15:00.075Z,56.59
2022-11-07T09:17:27.602Z,55.34
2022-11-07T09:19:54.769Z,56.90
2022-11-07T09:22:22.371Z,54.74
2022-11-07T09:24:49.481Z,54.13
2022-11-07T09:27:17.730Z,47.89
2022-11-07T09:29:45.326Z,39.77
2022-11-07T09:32:42.855Z,36.08
2022-11-07T09:35:04.813Z,37.51
2022-11-07T09:37:32.703Z,40.17
2022-11-07T09:39:59.851Z,43.15
2022-11-07T09:42:30.000Z,46.80
2022-11-07T09:44:57.469Z,48.97
2022-11-07T09:47:33.574Z,48.38
2022-11-07T09:50:01.030Z,46.73
2022-11-07T09:52:32.327Z,45.59
2022-11-07T09:55:01.065Z,48.08
2022-11-07T09:57:29.717Z,56.64
2022-11-07T10:00:29.465Z,51.45
2022-11-07T10:02:59.837Z,54.28
2022-11-07T10:05:42.309Z,51.78
2022-11-07T10:08:22.864Z,53.55
2022-11-07T10:10:56.279Z,53.19
2022-11-07T10:13:23.310Z,54.00
2022-11-07T10:15:59.265Z,54.42
2022-11-07T10:18:36.708Z,51.98
2022-11-07T10:21:35.814Z,43.75
2022-11-07T10:23:54.776Z,44.37
2022-11-07T10:26:22.479Z,44.88
2022-11-07T10:28:55.815Z,40.39
2022-11-07T10:31:23.061Z,39.24
2022-11-07T10:34:10.531Z,39.05
2022-11-07T10:36:37.691Z,38.19
2022-11-07T10:39:13.471Z,38.69
2022-11-07T10:41:40.562Z,36.44
2022-11-07T10:44:11.122Z,35.46
2022-11-07T10:46:39.059Z,36.08
2022-11-07T10:49:24.938Z,35.20
2022-11-07T10:51:52.161Z,35.56
2022-11-07T10:54:25.393Z,34.93
2022-11-07T10:56:58.412Z,32.76
2022-11-07T10:59:34.539Z,33.34
2022-11-07T11:02:03.902Z,34.62
2022-11-07T11:04:32.921Z,33.23
2022-11-07T11:07:01.547Z,33.54
2022-11-07T11:09:32.269Z,34.72
2022-11-07T11:12:03.597Z,34.91
2022-11-07T11:14:30.825Z,37.36
2022-11-07T11:17:00.211Z,39.20
2022-11-07T11:19:40.849Z,40.05
2022-11-07T11:22:16.085Z,39.79
2022-11-07T11:24:43.333Z,41.61
2022-11-07T11:27:13.261Z,43.57
2022-11-07T11:30:00.417Z,44.54
2022-11-07T11:32:30.490Z,43.88
2022-11-07T11:34:59.964Z,42.52
2022-11-07T11:37:27.763Z,40.75
2022-11-07T11:39:57.796Z,41.49
2022-11-07T11:42:37.195Z,40.60
2022-11-07T11:45:09.340Z,42.99
2022-11-07T11:47:40.902Z,41.77
2022-11-07T11:50:16.762Z,41.07
2022-11-07T11:52:44.072Z,40.69
2022-11-07T11:55:14.808Z,41.45
2022-11-07T11:57:51.285Z,40.29
2022-11-07T12:00:18.937Z,38.83
2022-11-07T12:02:47.975Z,39.60
2022-11-07T12:05:15.032Z,42.47
2022-11-07T12:08:01.729Z,41.62
2022-11-07T12:10:40.988Z,41.13
2022-11-07T12:13:26.663Z,41.73
2022-11-07T12:16:03.932Z,42.91
2022-11-07T12:18:35.186Z,41.61
2022-11-07T12:21:02.723Z,43.24
2022-11-07T12:23:48.564Z,45.79
2022-11-07T12:26:19.657Z,44.75
2022-11-07T12:29:10.044Z,46.38
2022-11-07T12:31:55.879Z,47.70
2022-11-07T12:34:29.793Z,49.77
2022-11-07T12:37:08.936Z,53.81
2022-11-07T12:39:51.632Z,54.48
2022-11-07T12:42:37.362Z,55.15
2022-11-07T12:45:07.381Z,56.97
2022-11-07T12:47:35.587Z,58.04
2022-11-07T12:50:08.524Z,58.91
2022-11-07T12:52:39.272Z,61.20
2022-11-07T12:55:23.143Z,59.67
2022-11-07T12:57:50.986Z,60.97
2022-11-07T13:00:20.486Z,60.50
2022-11-07T13:02:51.199Z,59.84
2022-11-07T13:05:21.272Z,56.27
2022-11-07T13:07:51.471Z,55.65
2022-11-07T13:10:31.176Z,56.68
2022-11-07T13:12:59.392Z,58.22
2022-11-07T13:15:27.058Z,60.71
2022-11-07T13:17:54.614Z,61.21
2022-11-07T13:20:21.612Z,62.32
2022-11-07T13:22:49.177Z,65.31
2022-11-07T13:25:17.283Z,65.18
2022-11-07T13:27:55.414Z,66.45
2022-11-07T13:30:24.360Z,68.04
2022-11-07T13:32:52.749Z,69.79
2022-11-07T13:35:22.804Z,68.97
2022-11-07T13:38:07.410Z,68.47
2022-11-07T13:40:39.444Z,70.93
2022-11-07T13:43:11.824Z,69.87
2022-11-07T13:45:48.981Z,69.94
2022-11-07T13:48:18.075Z,70.05
2022-11-07T13:50:46.915Z,72.43
2022-11-07T13:53:34.393Z,71.48
2022-11-07T13:56:22.120Z,73.89
2022-11-07T13:58:49.966Z,75.10
2022-11-07T14:01:17.362Z,75.92
2022-11-07T14:03:44.452Z,74.92
2022-11-07T14:06:12.500Z,75.75
2022-11-07T14:08:46.240Z,75.84
2022-11-07T14:11:15.230Z,75.47
2022-11-07T14:13:42.282Z,75.70
2022-11-07T14:16:28.129Z,76.59
2022-11-07T14:18:59.733Z,77.40
2022-11-07T14:21:27.811Z,78.22
2022-11-07T14:23:56.823Z,78.74
2022-11-07T14:26:25.936Z,77.91
2022-11-07T14:28:57.683Z,77.61
2022-11-07T14:31:27.224Z,77.69
2022-11-07T14:33:55.079Z,79.00
2022-11-07T14:36:22.506Z,79.22
2022-11-07T14:39:15.994Z,79.39
2022-11-07T14:41:45.073Z,79.97
2022-11-07T14:44:13.710Z,80.72
2022-11-07T14:46:40.855Z,80.96
2022-11-07T14:49:11.213Z,81.28
2022-11-07T14:51:38.581Z,81.13
2022-11-07T14:54:13.617Z,81.36
2022-11-07T14:56:42.310Z,81.91
2022-11-07T14:59:14.710Z,81.51
2022-11-07T15:01:56.463Z,81.52
2022-11-07T15:04:44.004Z,81.63
2022-11-07T15:07:13.524Z,82.58
2022-11-07T15:09:43.785Z,83.11
2022-11-07T15:12:15.777Z,83.42
2022-11-07T15:14:43.034Z,84.20
2022-11-07T15:17:18.807Z,84.81
2022-11-07T15:19:52.121Z,85.25
2022-11-07T15:22:38.468Z,85.15
2022-11-07T15:25:24.274Z,84.59
2022-11-07T15:27:51.379Z,84.37
2022-11-07T15:30:36.597Z,84.34
2022-11-07T15:33:04.617Z,84.41
2022-11-07T15:35:43.958Z,84.56
2022-11-07T15:38:14.630Z,84.03
2022-11-07T15:40:41.872Z,83.92
2022-11-07T15:43:08.924Z,84.17
2022-11-07T15:45:39.197Z,84.25
2022-11-07T15:48:07.656Z,83.98
2022-11-07T15:50:36.211Z,83.64
2022-11-07T15:53:03.252Z,83.56
2022-11-07T15:55:30.627Z,84.11
2022-11-07T15:57:57.926Z,84.73
2022-11-07T16:00:34.095Z,84.34
2022-11-07T16:03:03.777Z,85.67
2022-11-07T16:05:31.126Z,85.57
2022-11-07T16:07:58.358Z,85.88
2022-11-07T16:10:26.606Z,86.29
2022-11-07T16:12:53.757Z,86.23
2022-11-07T16:15:22.551Z,86.19
2022-11-07T16:17:49.625Z,86.24
2022-11-07T16:20:17.325Z,86.42
2022-11-07T16:22:44.712Z,86.22
2022-11-07T16:25:21.584Z,86.19
2022-11-07T16:28:06.130Z,86.66
2022-11-07T16:30:35.833Z,86.57
2022-11-07T16:33:04.195Z,86.57
2022-11-07T16:35:31.253Z,85.90
2022-11-07T16:37:59.104Z,85.85
2022-11-07T16:40:26.721Z,86.45
2022-11-07T16:42:53.770Z,87.09
2022-11-07T16:45:22.498Z,86.96
2022-11-07T16:47:50.058Z,86.45
2022-11-07T16:50:17.372Z,86.60
2022-11-07T16:52:44.502Z,86.57
2022-11-07T16:55:16.074Z,86.56
2022-11-07T16:57:43.399Z,86.67
2022-11-07T17:00:23.084Z,86.52
2022-11-07T17:02:50.425Z,86.75
2022-11-07T17:05:20.718Z,86.77
2022-11-07T17:07:48.753Z,87.04
2022-11-07T17:10:16.628Z,86.91
2022-11-07T17:12:45.059Z,86.66
2022-11-07T17:15:12.132Z,85.96
2022-11-07T17:17:39.773Z,85.95
2022-11-07T17:20:07.093Z,86.09
2022-11-07T17:22:35.951Z,86.03
2022-11-07T17:25:04.511Z,86.05
2022-11-07T17:27:33.766Z,85.87
2022-11-07T17:30:04.500Z,85.87
2022-11-07T17:32:37.617Z,85.97
2022-11-07T17:35:30.604Z,85.42
2022-11-07T17:37:53.668Z,85.43
2022-11-07T17:40:22.076Z,85.67
2022-11-07T17:42:49.631Z,85.46
2022-11-07T17:45:16.685Z,85.25
2022-11-07T17:47:43.790Z,85.76
2022-11-07T17:50:13.911Z,85.79
2022-11-07T17:52:41.380Z,85.61
2022-11-07T17:55:09.543Z,85.54
2022-11-07T17:57:38.150Z,85.69
2022-11-07T18:00:19.339Z,85.95
2022-11-07T18:02:48.975Z,85.66
2022-11-07T18:05:16.733Z,85.85
2022-11-07T18:07:44.575Z,86.62
2022-11-07T18:10:13.497Z,86.37
2022-11-07T18:12:43.841Z,86.45
2022-11-07T18:15:15.375Z,86.09
2022-11-07T18:17:42.624Z,85.86
2022-11-07T18:20:12.308Z,85.69
2022-11-07T18:22:40.449Z,85.36
2022-11-07T18:25:10.071Z,85.51
2022-11-07T18:27:37.604Z,85.70
2022-11-07T18:30:06.995Z,86.24
2022-11-07T18:32:36.443Z,86.42
2022-11-07T18:35:08.207Z,87.49
2022-11-07T18:37:35.892Z,87.74
2022-11-07T18:40:03.026Z,87.67
2022-11-07T18:42:31.042Z,88.19
2022-11-07T18:44:59.989Z,88.44
2022-11-07T18:47:29.597Z,88.20
2022-11-07T18:49:57.650Z,88.47
2022-11-07T18:52:24.912Z,88.71
2022-11-07T18:54:55.745Z,88.42
2022-11-07T18:57:22.835Z,87.98
2022-11-07T18:59:49.968Z,88.63
2022-11-07T19:02:17.721Z,88.76
2022-11-07T19:04:45.054Z,88.34
2022-11-07T19:07:12.077Z,88.07
2022-11-07T19:09:40.151Z,87.60
2022-11-07T19:12:07.459Z,87.29
2022-11-07T19:14:34.780Z,87.72
2022-11-07T19:17:05.088Z,87.76
2022-11-07T19:19:32.296Z,87.87
2022-11-07T19:22:01.499Z,87.70
2022-11-07T19:24:28.933Z,87.46
2022-11-07T19:26:55.977Z,87.73
2022-11-07T19:29:24.720Z,87.57
2022-11-07T19:31:52.881Z,87.58
2022-11-07T19:34:21.129Z,87.90
2022-11-07T19:36:48.380Z,88.24
2022-11-07T19:39:16.203Z,88.52
2022-11-07T19:41:43.581Z,88.48
2022-11-07T19:44:10.682Z,89.04
2022-11-07T19:46:37.801Z,89.42
2022-11-07T19:49:05.531Z,89.69
2022-11-07T19:51:32.850Z,89.68
2022-11-07T19:54:01.985Z,89.49
2022-11-07T19:56:30.638Z,89.45
2022-11-07T19:58:58.705Z,89.68
2022-11-07T20:01:27.184Z,89.76
2022-11-07T20:03:55.100Z,89.82
2022-11-07T20:06:23.286Z,90.05
2022-11-07T20:08:50.775Z,89.92
2022-11-07T20:11:23.008Z,90.36
2022-11-07T20:13:50.341Z,90.24
2022-11-07T20:16:18.842Z,90.36
2022-11-07T20:18:45.992Z,90.51
2022-11-07T20:21:22.399Z,90.43
2022-11-07T20:23:49.674Z,90.83
2022-11-07T20:26:18.088Z,90.88
2022-11-07T20:28:48.321Z,91.28
2022-11-07T20:31:17.596Z,91.37
2022-11-07T20:33:44.853Z,90.79
2022-11-07T20:36:13.076Z,91.16
2022-11-07T20:38:40.368Z,90.61
2022-11-07T20:41:08.597Z,90.68
2022-11-07T20:43:37.153Z,91.17
2022-11-07T20:46:08.506Z,91.37
2022-11-07T20:48:35.640Z,91.45
2022-11-07T20:51:08.803Z,91.77
2022-11-07T20:53:36.787Z,91.32
2022-11-07T20:56:05.352Z,91.03
2022-11-07T20:58:33.276Z,91.01
2022-11-07T21:01:00.874Z,90.97
2022-11-07T21:03:30.522Z,90.71
2022-11-07T21:05:58.233Z,90.64
2022-11-07T21:08:25.342Z,91.21
2022-11-07T21:10:52.850Z,91.93
2022-11-07T21:13:20.058Z,91.83
2022-11-07T21:15:51.199Z,92.26
2022-11-07T21:18:18.363Z,92.21
2022-11-07T21:20:45.970Z,92.82
2022-11-07T21:23:15.924Z,92.75
2022-11-07T21:25:44.199Z,92.90
2022-11-07T21:28:12.791Z,92.92
2022-11-07T21:30:42.530Z,92.93
2022-11-07T21:33:10.182Z,93.26
2022-11-07T21:35:41.707Z,93.10
2022-11-07T21:38:08.718Z,93.29
2022-11-07T21:40:37.096Z,93.61
2022-11-07T21:43:04.560Z,93.69
2022-11-07T21:45:33.189Z,93.86
2022-11-07T21:48:00.844Z,93.97
2022-11-07T21:50:44.285Z,94.21
2022-11-07T21:53:12.439Z,94.06
2022-11-07T21:55:39.954Z,93.61
2022-11-07T21:58:07.033Z,93.66
2022-11-07T22:00:36.651Z,93.43
2022-11-07T22:03:04.559Z,94.18
2022-11-07T22:05:31.716Z,93.88
2022-11-07T22:07:58.986Z,94.10
2022-11-07T22:10:26.627Z,94.15
2022-11-07T22:12:53.982Z,93.95
2022-11-07T22:15:21.029Z,94.16
2022-11-07T22:17:48.658Z,93.84
2022-11-07T22:20:15.737Z,93.45
2022-11-07T22:22:42.747Z,93.39
2022-11-07T22:25:10.776Z,93.45
2022-11-07T22:27:38.541Z,94.19
2022-11-07T22:30:05.744Z,94.21
2022-11-07T22:32:33.083Z,94.06
2022-11-07T22:35:03.650Z,94.32
2022-11-07T22:37:33.452Z,94.47
2022-11-07T22:40:01.639Z,94.73
2022-11-07T22:42:29.320Z,94.43
2022-11-07T22:44:56.469Z,94.12
2022-11-07T22:47:23.748Z,94.39
2022-11-07T22:49:51.697Z,94.22
2022-11-07T22:52:18.793Z,94.03
2022-11-07T22:54:45.916Z,93.92
2022-11-07T22:57:17.570Z,94.21
2022-11-07T22:59:45.739Z,94.48
2022-11-07T23:02:13.389Z,94.14
2022-11-07T23:04:41.151Z,94.13
2022-11-07T23:07:08.216Z,94.10
2022-11-07T23:09:36.011Z,94.46
2022-11-07T23:12:03.113Z,94.59
2022-11-07T23:14:31.255Z,94.92
2022-11-07T23:16:58.612Z,94.88
2022-11-07T23:19:25.845Z,94.79
2022-11-07T23:21:53.267Z,94.75
2022-11-07T23:24:21.257Z,94.74
2022-11-07T23:26:48.634Z,94.88
2022-11-07T23:29:19.795Z,94.09
2022-11-07T23:31:47.261Z,93.59
2022-11-07T23:34:14.896Z,93.60
2022-11-07T23:36:44.306Z,93.12
2022-11-07T23:39:15.702Z,93.19
2022-11-07T23:41:42.908Z,93.93
2022-11-07T23:44:10.414Z,94.41
2022-11-07T23:46:56.608Z,93.81
2022-11-07T23:49:42.626Z,93.92
2022-11-07T23:52:09.826Z,93.68
2022-11-07T23:54:55.938Z,94.16
2022-11-07T23:57:23.008Z,93.77
